createdAt,value
2023-01-15T00:01:00.973Z,1.10
2023-01-15T00:03:49.037Z,1.60
2023-01-15T00:06:38.144Z,1.43
2023-01-15T00:09:25.509Z,1.40
2023-01-15T00:12:12.885Z,1.67
2023-01-15T00:15:00.254Z,1.13
2023-01-15T00:17:47.632Z,1.50
2023-01-15T00:20:34.994Z,1.20
2023-01-15T00:23:41.336Z,1.43
2023-01-15T00:26:48.843Z,1.37
2023-01-15T00:29:36.250Z,1.30
2023-01-15T00:32:23.606Z,1.23
2023-01-15T00:35:12.892Z,0.93
2023-01-15T00:38:00.327Z,1.47
2023-01-15T00:40:52.815Z,1.20
2023-01-15T00:43:40.192Z,1.50
2023-01-15T00:46:27.717Z,1.27
2023-01-15T00:49:15.360Z,1.03
2023-01-15T00:52:02.773Z,1.23
2023-01-15T00:54:50.177Z,1.20
2023-01-15T00:57:37.617Z,1.00
2023-01-15T01:00:24.987Z,1.23
2023-01-15T01:03:12.352Z,1.20
2023-01-15T01:06:03.132Z,1.10
2023-01-15T01:08:50.618Z,1.20
2023-01-15T01:11:37.985Z,1.13
2023-01-15T01:14:25.425Z,0.93
2023-01-15T01:17:12.776Z,1.10
2023-01-15T01:20:00.175Z,1.23
2023-01-15T01:22:49.212Z,1.33
2023-01-15T01:25:36.951Z,1.50
2023-01-15T01:28:24.293Z,1.43
2023-01-15T01:31:11.661Z,1.40
2023-01-15T01:34:00.108Z,1.10
2023-01-15T01:36:47.624Z,1.53
2023-01-15T01:39:34.974Z,1.20
2023-01-15T01:42:22.429Z,1.30
2023-01-15T01:45:29.197Z,1.60
2023-01-15T01:48:18.115Z,1.37
2023-01-15T01:51:06.145Z,1.40
2023-01-15T01:53:53.901Z,1.20
2023-01-15T01:56:41.745Z,1.20
2023-01-15T01:59:29.559Z,1.20
2023-01-15T02:02:18.543Z,1.23
2023-01-15T02:05:06.416Z,1.27
2023-01-15T02:07:53.791Z,1.30
2023-01-15T02:10:41.572Z,1.70
2023-01-15T02:13:36.333Z,1.53
2023-01-15T02:16:26.442Z,1.47
2023-01-15T02:19:16.925Z,1.70
2023-01-15T02:22:04.338Z,1.57
2023-01-15T02:25:30.421Z,1.87
2023-01-15T02:28:23.519Z,2.20
2023-01-15T02:31:18.814Z,1.73
2023-01-15T02:34:32.168Z,2.00
2023-01-15T02:37:23.274Z,2.13
2023-01-15T02:40:11.667Z,2.07
2023-01-15T02:42:59.861Z,1.77
2023-01-15T02:45:49.823Z,2.00
2023-01-15T02:48:38.711Z,2.00
2023-01-15T02:51:31.848Z,1.83
2023-01-15T02:54:20.886Z,1.67
2023-01-15T02:57:08.925Z,1.93
2023-01-15T02:59:58.007Z,2.10
2023-01-15T03:02:55.075Z,2.50
2023-01-15T03:06:00.940Z,1.87
2023-01-15T03:08:48.493Z,1.33
2023-01-15T03:11:40.096Z,2.00
2023-01-15T03:14:33.566Z,2.10
2023-01-15T03:17:27.765Z,1.47
2023-01-15T03:20:17.763Z,1.50
2023-01-15T03:23:09.161Z,1.60
2023-01-15T03:25:56.583Z,1.63
2023-01-15T03:28:44.158Z,2.00
2023-01-15T03:31:31.538Z,1.50
2023-01-15T03:34:18.917Z,1.57
2023-01-15T03:37:06.338Z,2.00
2023-01-15T03:39:54.372Z,1.83
2023-01-15T03:42:48.981Z,1.97
2023-01-15T03:45:38.110Z,1.60
2023-01-15T03:48:31.540Z,1.50
2023-01-15T03:51:20.870Z,1.80
2023-01-15T03:54:11.877Z,1.80
2023-01-15T03:57:02.431Z,1.60
2023-01-15T03:59:52.122Z,1.70
2023-01-15T04:02:40.066Z,1.90
2023-01-15T04:05:29.321Z,2.20
2023-01-15T04:08:18.063Z,1.73
2023-01-15T04:11:05.985Z,1.70
2023-01-15T04:13:54.419Z,1.63
2023-01-15T04:16:41.975Z,1.80
2023-01-15T04:19:29.305Z,2.33
2023-01-15T04:22:16.747Z,1.97
2023-01-15T04:25:04.685Z,2.00
2023-01-15T04:27:54.380Z,1.67
2023-01-15T04:30:43.403Z,2.20
2023-01-15T04:33:31.058Z,2.20
2023-01-15T04:36:18.483Z,2.20
2023-01-15T04:39:06.180Z,1.80
2023-01-15T04:42:12.110Z,1.97
2023-01-15T04:44:59.478Z,1.73
2023-01-15T04:47:46.857Z,2.00
2023-01-15T04:50:34.305Z,1.50
2023-01-15T04:53:21.667Z,2.30
2023-01-15T04:56:09.065Z,2.23
2023-01-15T04:58:56.479Z,2.53
2023-01-15T05:01:58.075Z,2.03
2023-01-15T05:04:50.725Z,1.90
2023-01-15T05:07:38.271Z,2.03
2023-01-15T05:10:25.650Z,2.60
2023-01-15T05:13:13.141Z,2.10
2023-01-15T05:16:10.876Z,2.00
2023-01-15T05:18:59.762Z,2.17
2023-01-15T05:21:47.149Z,1.93
2023-01-15T05:24:34.513Z,3.90
2023-01-15T05:27:21.869Z,2.00
2023-01-15T05:30:09.806Z,2.53
2023-01-15T05:32:57.201Z,2.13
2023-01-15T05:35:44.565Z,2.13
2023-01-15T05:38:31.998Z,1.93
2023-01-15T05:41:39.024Z,2.20
2023-01-15T05:44:27.594Z,2.53
2023-01-15T05:47:15.047Z,2.10
2023-01-15T05:50:02.433Z,2.23
2023-01-15T05:52:49.868Z,2.33
2023-01-15T05:55:37.241Z,3.00
2023-01-15T05:58:24.599Z,2.17
2023-01-15T06:01:12.290Z,2.10
2023-01-15T06:04:00.658Z,3.20
2023-01-15T06:06:49.058Z,3.27
2023-01-15T06:09:36.435Z,1.90
2023-01-15T06:12:23.818Z,1.80
2023-01-15T06:15:12.255Z,2.50
2023-01-15T06:17:59.616Z,2.13
2023-01-15T06:20:46.945Z,1.90
2023-01-15T06:23:36.777Z,1.90
2023-01-15T06:26:24.201Z,2.03
2023-01-15T06:29:11.681Z,3.00
2023-01-15T06:31:59.053Z,2.60
2023-01-15T06:34:46.438Z,2.00
2023-01-15T06:37:33.806Z,2.57
2023-01-15T06:40:21.660Z,2.10
2023-01-15T06:43:29.375Z,2.33
2023-01-15T06:46:36.324Z,1.83
2023-01-15T06:49:23.647Z,1.90
2023-01-15T06:52:11.202Z,2.00
2023-01-15T06:54:58.683Z,2.27
2023-01-15T06:57:46.044Z,2.67
2023-01-15T07:00:34.074Z,1.80
2023-01-15T07:03:21.567Z,2.67
2023-01-15T07:06:13.456Z,2.63
2023-01-15T07:09:00.800Z,2.00
2023-01-15T07:11:50.989Z,2.60
2023-01-15T07:14:38.409Z,2.90
2023-01-15T07:17:25.784Z,2.23
2023-01-15T07:20:13.329Z,2.80
2023-01-15T07:23:00.914Z,2.53
2023-01-15T07:25:49.122Z,2.40
2023-01-15T07:28:37.223Z,2.40
2023-01-15T07:31:24.719Z,2.90
2023-01-15T07:34:12.626Z,2.53
2023-01-15T07:37:00.479Z,2.57
2023-01-15T07:39:48.489Z,2.70
2023-01-15T07:42:55.001Z,2.50
2023-01-15T07:46:02.615Z,2.20
2023-01-15T07:49:09.071Z,2.33
2023-01-15T07:51:56.599Z,1.90
2023-01-15T07:54:44.378Z,1.87
2023-01-15T07:57:32.077Z,2.53
2023-01-15T08:00:23.749Z,1.90
2023-01-15T08:03:11.165Z,3.03
2023-01-15T08:05:58.571Z,3.20
2023-01-15T08:08:45.924Z,1.93
2023-01-15T08:11:53.313Z,2.43
2023-01-15T08:14:59.457Z,2.57
2023-01-15T08:17:48.039Z,2.23
2023-01-15T08:20:36.300Z,3.10
2023-01-15T08:23:23.658Z,2.60
2023-01-15T08:26:11.016Z,3.17
2023-01-15T08:28:59.445Z,2.20
2023-01-15T08:31:47.005Z,4.13
2023-01-15T08:34:34.420Z,3.50
2023-01-15T08:37:23.764Z,2.80
2023-01-15T08:40:13.265Z,3.50
2023-01-15T08:43:00.610Z,1.83
2023-01-15T08:45:48.035Z,2.40
2023-01-15T08:48:35.434Z,2.87
2023-01-15T08:51:22.796Z,2.40
2023-01-15T08:54:10.283Z,2.10
2023-01-15T08:56:57.667Z,2.87
2023-01-15T08:59:45.109Z,2.60
2023-01-15T09:02:32.633Z,2.23
2023-01-15T09:05:20.072Z,2.17
2023-01-15T09:08:07.967Z,2.70
2023-01-15T09:11:02.657Z,2.57
2023-01-15T09:13:51.544Z,2.37
2023-01-15T09:16:39.050Z,2.27
2023-01-15T09:19:26.415Z,2.33
2023-01-15T09:22:13.919Z,2.03
2023-01-15T09:25:01.585Z,1.80
2023-01-15T09:27:49.797Z,2.40
2023-01-15T09:30:37.165Z,2.10
2023-01-15T09:33:24.575Z,2.63
2023-01-15T09:36:15.943Z,2.17
2023-01-15T09:39:04.703Z,2.83
2023-01-15T09:42:08.623Z,2.37
2023-01-15T09:45:02.225Z,2.20
2023-01-15T09:47:58.950Z,2.47
2023-01-15T09:50:46.501Z,2.30
2023-01-15T09:53:37.273Z,2.27
2023-01-15T09:56:29.305Z,2.07
2023-01-15T09:59:37.069Z,2.13
2023-01-15T10:02:24.729Z,1.83
2023-01-15T10:05:18.140Z,1.87
2023-01-15T10:08:12.721Z,1.90
2023-01-15T10:11:03.255Z,1.90
2023-01-15T10:13:54.233Z,1.80
2023-01-15T10:16:41.673Z,2.10
2023-01-15T10:19:43.798Z,1.70
2023-01-15T10:22:54.794Z,1.60
2023-01-15T10:25:49.773Z,1.70
2023-01-15T10:28:53.863Z,1.50
2023-01-15T10:31:44.529Z,1.80
2023-01-15T10:34:48.980Z,1.77
2023-01-15T10:37:50.005Z,1.27
2023-01-15T10:40:56.147Z,1.50
2023-01-15T10:44:02.186Z,1.30
2023-01-15T10:47:00.510Z,1.40
2023-01-15T10:49:49.501Z,1.40
2023-01-15T10:52:38.328Z,2.00
2023-01-15T10:55:36.124Z,1.70
2023-01-15T10:58:31.242Z,1.60
2023-01-15T11:01:21.714Z,2.00
2023-01-15T11:04:12.362Z,2.00
2023-01-15T11:07:01.090Z,1.70
2023-01-15T11:09:48.986Z,1.73
2023-01-15T11:12:55.348Z,1.87
2023-01-15T11:16:04.984Z,1.90
2023-01-15T11:19:11.482Z,1.50
2023-01-15T11:22:01.192Z,1.37
2023-01-15T11:24:53.193Z,1.60
2023-01-15T11:27:40.785Z,1.87
2023-01-15T11:30:29.810Z,1.43
2023-01-15T11:33:32.088Z,1.27
2023-01-15T11:36:21.773Z,2.57
2023-01-15T11:39:26.969Z,1.17
2023-01-15T11:42:35.873Z,1.50
2023-01-15T11:45:43.766Z,1.63
2023-01-15T11:48:53.960Z,1.50
2023-01-15T11:51:43.035Z,1.80
2023-01-15T11:54:31.144Z,1.93
2023-01-15T11:57:26.249Z,1.43
2023-01-15T12:00:23.171Z,1.60
2023-01-15T12:03:15.801Z,2.27
2023-01-15T12:06:08.071Z,1.90
2023-01-15T12:09:05.640Z,1.60
2023-01-15T12:11:53.008Z,1.47
2023-01-15T12:14:40.515Z,1.50
2023-01-15T12:17:43.325Z,1.33
2023-01-15T12:20:40.752Z,1.53
2023-01-15T12:23:28.156Z,1.30
2023-01-15T12:26:17.558Z,1.20
2023-01-15T12:29:20.440Z,1.13
2023-01-15T12:32:11.848Z,0.93
2023-01-15T12:35:04.108Z,1.20
2023-01-15T12:37:53.837Z,0.60
2023-01-15T12:40:48.564Z,0.50
2023-01-15T12:43:54.482Z,0.50
2023-01-15T12:46:43.475Z,0.70
2023-01-15T12:49:57.303Z,0.40
2023-01-15T12:52:46.921Z,0.97
2023-01-15T12:55:38.617Z,1.63
2023-01-15T12:58:31.767Z,0.70
2023-01-15T13:01:38.539Z,1.13
2023-01-15T13:04:33.972Z,1.20
2023-01-15T13:07:26.017Z,1.37
2023-01-15T13:10:34.327Z,1.10
2023-01-15T13:13:25.925Z,1.10
2023-01-15T13:16:32.275Z,1.50
2023-01-15T13:19:27.130Z,1.47
2023-01-15T13:22:17.046Z,1.50
2023-01-15T13:25:13.711Z,1.60
2023-01-15T13:28:07.477Z,1.73
2023-01-15T13:30:54.811Z,1.93
2023-01-15T13:33:44.722Z,1.60
2023-01-15T13:36:41.696Z,1.73
2023-01-15T13:39:33.532Z,1.77
2023-01-15T13:42:37.905Z,2.00
2023-01-15T13:45:39.348Z,1.80
2023-01-15T13:48:31.838Z,1.70
2023-01-15T13:51:28.163Z,2.13
2023-01-15T13:54:17.105Z,2.27
2023-01-15T13:57:11.411Z,2.83
2023-01-15T13:59:58.755Z,2.43
2023-01-15T14:02:52.868Z,2.00
2023-01-15T14:05:40.272Z,1.90
2023-01-15T14:08:41.330Z,1.80
2023-01-15T14:11:32.180Z,1.90
2023-01-15T14:14:25.850Z,2.13
2023-01-15T14:17:32.144Z,2.43
2023-01-15T14:20:19.478Z,1.73
2023-01-15T14:23:16.081Z,1.70
2023-01-15T14:26:09.977Z,1.90
2023-01-15T14:29:07.816Z,1.70
2023-01-15T14:32:16.972Z,1.23
2023-01-15T14:35:04.821Z,1.77
2023-01-15T14:37:54.250Z,1.50
2023-01-15T14:40:50.746Z,1.70
2023-01-15T14:43:41.502Z,1.77
2023-01-15T14:46:34.089Z,2.10
2023-01-15T14:49:32.138Z,1.60
2023-01-15T14:52:23.790Z,1.70
2023-01-15T14:55:14.842Z,1.70
2023-01-15T14:58:09.017Z,1.70
2023-01-15T15:00:58.597Z,2.30
2023-01-15T15:03:54.954Z,1.90
2023-01-15T15:06:47.259Z,1.70
2023-01-15T15:09:43.979Z,2.00
2023-01-15T15:12:43.191Z,2.40
2023-01-15T15:15:30.614Z,1.90
2023-01-15T15:18:36.710Z,1.70
2023-01-15T15:21:28.721Z,1.90
2023-01-15T15:24:19.466Z,1.70
2023-01-15T15:27:15.678Z,1.87
2023-01-15T15:30:07.580Z,1.90
2023-01-15T15:32:55.011Z,1.87
2023-01-15T15:35:44.702Z,2.00
2023-01-15T15:38:32.196Z,2.00
2023-01-15T15:41:40.028Z,1.87
2023-01-15T15:44:58.361Z,1.90
2023-01-15T15:48:04.709Z,2.17
2023-01-15T15:50:52.300Z,1.60
2023-01-15T15:53:39.635Z,2.27
2023-01-15T15:56:27.494Z,2.07
2023-01-15T15:59:21.118Z,1.50
2023-01-15T16:02:19.692Z,2.13
2023-01-15T16:05:19.579Z,2.13
2023-01-15T16:08:16.502Z,1.93
2023-01-15T16:11:07.878Z,2.40
2023-01-15T16:13:57.054Z,1.97
2023-01-15T16:16:45.985Z,1.77
2023-01-15T16:19:33.460Z,2.17
2023-01-15T16:22:21.468Z,1.97
2023-01-15T16:25:21.175Z,1.63
2023-01-15T16:28:22.262Z,2.00
2023-01-15T16:31:10.351Z,2.40
2023-01-15T16:33:58.615Z,2.10
2023-01-15T16:36:46.985Z,2.80
2023-01-15T16:39:34.367Z,2.97
2023-01-15T16:42:30.556Z,2.27
2023-01-15T16:45:22.801Z,2.50
2023-01-15T16:48:12.462Z,2.20
2023-01-15T16:50:59.924Z,2.40
2023-01-15T16:53:47.428Z,1.90
2023-01-15T16:56:38.054Z,1.80
2023-01-15T16:59:25.697Z,1.97
2023-01-15T17:02:17.666Z,1.90
2023-01-15T17:05:15.116Z,1.70
2023-01-15T17:08:02.572Z,1.90
2023-01-15T17:11:13.777Z,1.73
2023-01-15T17:14:10.323Z,1.80
2023-01-15T17:17:16.866Z,1.40
2023-01-15T17:20:04.354Z,1.50
2023-01-15T17:22:51.779Z,1.63
2023-01-15T17:25:39.149Z,1.60
2023-01-15T17:28:26.564Z,1.80
2023-01-15T17:31:20.400Z,2.07
2023-01-15T17:34:07.944Z,1.57
2023-01-15T17:36:55.525Z,1.80
2023-01-15T17:39:42.877Z,1.70
2023-01-15T17:42:30.301Z,1.80
2023-01-15T17:45:21.398Z,2.23
2023-01-15T17:48:08.989Z,1.87
2023-01-15T17:50:56.448Z,1.70
2023-01-15T17:53:44.032Z,1.80
2023-01-15T17:57:07.157Z,2.03
2023-01-15T18:00:13.618Z,2.20
2023-01-15T18:03:19.845Z,1.77
2023-01-15T18:06:10.243Z,1.90
2023-01-15T18:08:59.260Z,1.90
2023-01-15T18:11:46.753Z,2.47
2023-01-15T18:14:34.284Z,2.30
2023-01-15T18:17:21.733Z,2.20
2023-01-15T18:20:09.738Z,1.87
2023-01-15T18:22:57.111Z,2.37
2023-01-15T18:25:47.719Z,2.20
2023-01-15T18:28:36.168Z,2.13
2023-01-15T18:31:23.962Z,2.10
2023-01-15T18:34:11.367Z,1.90
2023-01-15T18:36:58.774Z,2.20
2023-01-15T18:39:46.143Z,2.07
2023-01-15T18:42:52.287Z,2.20
2023-01-15T18:45:58.669Z,2.60
2023-01-15T18:48:46.190Z,2.20
2023-01-15T18:51:33.583Z,2.60
2023-01-15T18:54:20.947Z,2.60
2023-01-15T18:57:08.386Z,2.53
2023-01-15T18:59:55.749Z,3.23
2023-01-15T19:02:43.192Z,2.20
2023-01-15T19:05:30.567Z,2.73
2023-01-15T19:08:18.154Z,2.37
2023-01-15T19:11:12.541Z,2.87
2023-01-15T19:14:19.051Z,2.50
2023-01-15T19:17:25.678Z,2.37
2023-01-15T19:20:13.985Z,2.30
2023-01-15T19:23:06.400Z,2.70
2023-01-15T19:25:53.740Z,2.07
2023-01-15T19:28:41.102Z,2.40
2023-01-15T19:31:39.067Z,3.23
2023-01-15T19:34:34.590Z,2.10
2023-01-15T19:37:22.399Z,2.07
2023-01-15T19:40:24.159Z,2.53
2023-01-15T19:43:30.649Z,2.20
2023-01-15T19:46:37.014Z,2.37
2023-01-15T19:49:43.151Z,2.73
2023-01-15T19:52:37.589Z,2.70
2023-01-15T19:55:25.266Z,2.43
2023-01-15T19:58:13.748Z,2.33
2023-01-15T20:01:01.628Z,2.00
2023-01-15T20:03:49.083Z,2.87
2023-01-15T20:06:36.435Z,2.33
2023-01-15T20:09:23.801Z,2.50
2023-01-15T20:12:31.005Z,2.30
2023-01-15T20:15:18.564Z,2.30
2023-01-15T20:18:06.418Z,2.00
2023-01-15T20:20:55.622Z,1.93
2023-01-15T20:23:43.689Z,2.20
2023-01-15T20:26:31.066Z,2.20
2023-01-15T20:29:18.537Z,2.20
2023-01-15T20:32:06.080Z,2.27
2023-01-15T20:34:53.528Z,2.70
2023-01-15T20:37:40.933Z,1.57
2023-01-15T20:40:28.774Z,2.20
2023-01-15T20:43:35.085Z,2.00
2023-01-15T20:46:22.432Z,2.10
2023-01-15T20:49:24.950Z,2.40
2023-01-15T20:52:12.283Z,2.30
2023-01-15T20:54:59.760Z,2.50
2023-01-15T20:57:47.457Z,2.30
2023-01-15T21:00:35.344Z,2.60
2023-01-15T21:03:22.725Z,2.70
2023-01-15T21:06:10.247Z,2.60
2023-01-15T21:08:57.639Z,1.97
2023-01-15T21:11:44.999Z,2.10
2023-01-15T21:14:32.374Z,3.10
2023-01-15T21:17:19.740Z,2.60
2023-01-15T21:20:09.149Z,3.00
2023-01-15T21:22:57.622Z,2.37
2023-01-15T21:25:44.984Z,2.90
2023-01-15T21:28:32.453Z,2.47
2023-01-15T21:31:19.821Z,2.23
2023-01-15T21:34:07.266Z,2.50
2023-01-15T21:36:54.631Z,2.40
2023-01-15T21:39:42.004Z,2.50
2023-01-15T21:42:48.346Z,2.40
2023-01-15T21:45:36.534Z,2.60
2023-01-15T21:48:25.085Z,2.70
2023-01-15T21:51:12.469Z,2.97
2023-01-15T21:54:00.440Z,2.60
2023-01-15T21:56:48.069Z,3.23
2023-01-15T21:59:35.454Z,2.90
2023-01-15T22:02:23.535Z,2.50
2023-01-15T22:05:11.203Z,2.30
2023-01-15T22:07:58.618Z,2.47
2023-01-15T22:10:45.999Z,2.80
2023-01-15T22:13:34.144Z,2.57
2023-01-15T22:16:21.571Z,2.70
2023-01-15T22:19:09.766Z,2.93
2023-01-15T22:22:01.909Z,2.53
2023-01-15T22:24:49.271Z,3.23
2023-01-15T22:27:40.677Z,2.80
2023-01-15T22:30:28.134Z,3.17
2023-01-15T22:33:16.005Z,2.77
2023-01-15T22:36:03.522Z,2.70
2023-01-15T22:38:54.593Z,2.90
2023-01-15T22:42:00.857Z,3.03
2023-01-15T22:44:49.561Z,2.70
2023-01-15T22:47:36.979Z,2.93
2023-01-15T22:50:24.320Z,3.00
2023-01-15T22:53:11.717Z,2.73
2023-01-15T22:55:59.693Z,2.77
2023-01-15T22:58:47.048Z,3.07
2023-01-15T23:01:35.219Z,2.80
2023-01-15T23:04:23.953Z,2.60
2023-01-15T23:07:11.369Z,2.70
2023-01-15T23:09:58.739Z,2.70
2023-01-15T23:12:46.137Z,2.60
2023-01-15T23:15:33.533Z,3.10
2023-01-15T23:18:21.818Z,3.10
2023-01-15T23:21:10.420Z,3.23
2023-01-15T23:23:58.851Z,3.60
2023-01-15T23:26:46.219Z,2.60
2023-01-15T23:29:33.773Z,3.03
2023-01-15T23:32:21.177Z,3.53
2023-01-15T23:35:09.157Z,3.40
2023-01-15T23:37:56.509Z,3.90
2023-01-15T23:40:43.921Z,3.40
2023-01-15T23:43:49.913Z,3.90
2023-01-15T23:46:37.723Z,3.37
2023-01-15T23:49:25.275Z,4.00
2023-01-15T23:52:12.644Z,3.50
2023-01-15T23:55:00.034Z,3.37
2023-01-15T23:57:47.429Z,3.13
